sensor_id;sensor_type;location;lat;lon;timestamp;pressure;altitude;pressure_sealevel;temperature;humidity
14293;BME280;62290;59.420;17.842;2023-07-16T00:00:27;100753.84;;;27.61;35.13
14293;BME280;62290;59.420;17.842;2023-07-16T00:02:57;100757.56;;;27.60;35.00
14293;BME280;62290;59.420;17.842;2023-07-16T00:05:25;100753.84;;;27.61;35.18
14293;BME280;62290;59.420;17.842;2023-07-16T00:07:53;100743.84;;;27.61;35.07
14293;BME280;62290;59.420;17.842;2023-07-16T00:10:21;100746.72;;;27.60;34.93
14293;BME280;62290;59.420;17.842;2023-07-16T00:12:50;100750.28;;;27.60;34.95
14293;BME280;62290;59.420;17.842;2023-07-16T00:15:18;100757.56;;;27.60;35.08
14293;BME280;62290;59.420;17.842;2023-07-16T00:17:46;100760.09;;;27.61;35.10
14293;BME280;62290;59.420;17.842;2023-07-16T00:20:14;100744.88;;;27.60;35.26
14293;BME280;62290;59.420;17.842;2023-07-16T00:22:42;100736.75;;;27.60;35.13
14293;BME280;62290;59.420;17.842;2023-07-16T00:25:11;100743.84;;;27.61;35.05
14293;BME280;62290;59.420;17.842;2023-07-16T00:27:39;100733.00;;;27.61;35.17
14293;BME280;62290;59.420;17.842;2023-07-16T00:30:09;100732.19;;;27.61;34.95
14293;BME280;62290;59.420;17.842;2023-07-16T00:32:38;100723.22;;;27.60;35.18
14293;BME280;62290;59.420;17.842;2023-07-16T00:35:07;100724.06;;;27.61;35.11
14293;BME280;62290;59.420;17.842;2023-07-16T00:37:36;100713.38;;;27.59;34.94
14293;BME280;62290;59.420;17.842;2023-07-16T00:40:07;100724.22;;;27.59;35.03
14293;BME280;62290;59.420;17.842;2023-07-16T00:42:35;100710.84;;;27.58;35.21
14293;BME280;62290;59.420;17.842;2023-07-16T00:45:11;100707.97;;;27.59;35.27
14293;BME280;62290;59.420;17.842;2023-07-16T00:47:41;100695.59;;;27.56;35.21
14293;BME280;62290;59.420;17.842;2023-07-16T00:50:11;100686.63;;;27.56;35.07
14293;BME280;62290;59.420;17.842;2023-07-16T00:52:39;100680.22;;;27.57;35.02
14293;BME280;62290;59.420;17.842;2023-07-16T00:55:08;100678.34;;;27.58;35.27
14293;BME280;62290;59.420;17.842;2023-07-16T00:57:38;100665.81;;;27.56;35.26
14293;BME280;62290;59.420;17.842;2023-07-16T01:00:11;100662.13;;;27.58;35.20
14293;BME280;62290;59.420;17.842;2023-07-16T01:02:40;100663.13;;;27.56;35.24
14293;BME280;62290;59.420;17.842;2023-07-16T01:05:08;100672.09;;;27.57;35.39
14293;BME280;62290;59.420;17.842;2023-07-16T01:07:37;100663.97;;;27.57;35.06
14293;BME280;62290;59.420;17.842;2023-07-16T01:10:07;100660.25;;;27.58;35.29
14293;BME280;62290;59.420;17.842;2023-07-16T01:12:36;100652.28;;;27.56;35.42
14293;BME280;62290;59.420;17.842;2023-07-16T01:15:05;100645.88;;;27.58;35.27
14293;BME280;62290;59.420;17.842;2023-07-16T01:17:34;100651.28;;;27.58;35.29
14293;BME280;62290;59.420;17.842;2023-07-16T01:20:03;100645.88;;;27.58;35.69
14293;BME280;62290;59.420;17.842;2023-07-16T01:22:47;100638.44;;;27.60;35.66
14293;BME280;62290;59.420;17.842;2023-07-16T01:25:31;100625.91;;;27.58;35.59
14293;BME280;62290;59.420;17.842;2023-07-16T01:28:15;100638.44;;;27.60;35.54
14293;BME280;62290;59.420;17.842;2023-07-16T01:30:47;100644.03;;;27.58;35.71
14293;BME280;62290;59.420;17.842;2023-07-16T01:33:16;100643.00;;;27.59;35.67
14293;BME280;62290;59.420;17.842;2023-07-16T01:35:45;100642.13;;;27.58;35.67
14293;BME280;62290;59.420;17.842;2023-07-16T01:38:15;100640.47;;;27.58;35.94
14293;BME280;62290;59.420;17.842;2023-07-16T01:40:45;100640.28;;;27.59;35.89
14293;BME280;62290;59.420;17.842;2023-07-16T01:43:13;100642.13;;;27.58;35.92
14293;BME280;62290;59.420;17.842;2023-07-16T01:45:41;100640.47;;;27.58;35.85
14293;BME280;62290;59.420;17.842;2023-07-16T01:48:27;100647.41;;;27.60;35.88
14293;BME280;62290;59.420;17.842;2023-07-16T01:50:57;100641.13;;;27.60;35.94
14293;BME280;62290;59.420;17.842;2023-07-16T01:53:25;100639.59;;;27.57;35.92
14293;BME280;62290;59.420;17.842;2023-07-16T01:55:53;100646.00;;;27.56;36.21
14293;BME280;62290;59.420;17.842;2023-07-16T01:58:21;100643.47;;;27.54;35.90
14293;BME280;62290;59.420;17.842;2023-07-16T02:00:50;100655.31;;;27.53;36.01
14293;BME280;62290;59.420;17.842;2023-07-16T02:03:19;100661.06;;;27.50;35.99
14293;BME280;62290;59.420;17.842;2023-07-16T02:05:48;100656.78;;;27.48;36.15
14293;BME280;62290;59.420;17.842;2023-07-16T02:08:16;100659.69;;;27.46;36.13
14293;BME280;62290;59.420;17.842;2023-07-16T02:10:47;100649.84;;;27.45;36.29
14293;BME280;62290;59.420;17.842;2023-07-16T02:13:15;100646.06;;;27.38;36.29
14293;BME280;62290;59.420;17.842;2023-07-16T02:15:43;100650.34;;;27.41;36.22
14293;BME280;62290;59.420;17.842;2023-07-16T02:18:11;100645.09;;;27.39;36.45
14293;BME280;62290;59.420;17.842;2023-07-16T02:20:43;100655.22;;;27.37;36.21
14293;BME280;62290;59.420;17.842;2023-07-16T02:23:11;100635.03;;;27.32;36.31
14293;BME280;62290;59.420;17.842;2023-07-16T02:25:39;100634.03;;;27.33;36.23
14293;BME280;62290;59.420;17.842;2023-07-16T02:28:07;100645.00;;;27.31;36.44
14293;BME280;62290;59.420;17.842;2023-07-16T02:30:35;100641.44;;;27.31;36.48
14293;BME280;62290;59.420;17.842;2023-07-16T02:33:03;100637.88;;;27.30;36.63
14293;BME280;62290;59.420;17.842;2023-07-16T02:35:31;100633.50;;;27.29;36.60
14293;BME280;62290;59.420;17.842;2023-07-16T02:38:00;100626.38;;;27.28;36.69
14293;BME280;62290;59.420;17.842;2023-07-16T02:40:29;100615.03;;;27.25;36.51
14293;BME280;62290;59.420;17.842;2023-07-16T02:42:57;100614.03;;;27.26;36.60
14293;BME280;62290;59.420;17.842;2023-07-16T02:45:25;100621.47;;;27.24;36.79
14293;BME280;62290;59.420;17.842;2023-07-16T02:47:53;100623.50;;;27.22;36.75
14293;BME280;62290;59.420;17.842;2023-07-16T02:50:21;100624.31;;;27.22;36.91
14293;BME280;62290;59.420;17.842;2023-07-16T02:52:49;100619.06;;;27.21;36.64
14293;BME280;62290;59.420;17.842;2023-07-16T02:55:19;100611.94;;;27.20;36.87
14293;BME280;62290;59.420;17.842;2023-07-16T02:57:47;100621.25;;;27.17;36.99
14293;BME280;62290;59.420;17.842;2023-07-16T03:00:15;100611.44;;;27.16;36.97
14293;BME280;62290;59.420;17.842;2023-07-16T03:02:43;100608.75;;;27.16;36.95
14293;BME280;62290;59.420;17.842;2023-07-16T03:05:12;100615.16;;;27.15;37.09
14293;BME280;62290;59.420;17.842;2023-07-16T03:07:40;100612.63;;;27.14;36.83
14293;BME280;62290;59.420;17.842;2023-07-16T03:10:09;100602.78;;;27.13;37.06
14293;BME280;62290;59.420;17.842;2023-07-16T03:12:39;100606.34;;;27.13;36.97
14293;BME280;62290;59.420;17.842;2023-07-16T03:15:08;100600.25;;;27.11;37.18
14293;BME280;62290;59.420;17.842;2023-07-16T03:17:36;100591.28;;;27.11;37.18
14293;BME280;62290;59.420;17.842;2023-07-16T03:20:06;100595.16;;;27.08;36.99
14293;BME280;62290;59.420;17.842;2023-07-16T03:22:34;100594.97;;;27.10;37.17
14293;BME280;62290;59.420;17.842;2023-07-16T03:25:03;100587.91;;;27.09;36.99
14293;BME280;62290;59.420;17.842;2023-07-16T03:27:32;100564.31;;;26.93;37.35
14293;BME280;62290;59.420;17.842;2023-07-16T03:30:02;100596.16;;;27.07;37.54
14293;BME280;62290;59.420;17.842;2023-07-16T03:32:31;100584.66;;;27.05;37.44
14293;BME280;62290;59.420;17.842;2023-07-16T03:35:18;100587.53;;;27.04;37.85
14293;BME280;62290;59.420;17.842;2023-07-16T03:37:51;100572.13;;;27.04;38.11
14293;BME280;62290;59.420;17.842;2023-07-16T03:40:24;100544.16;;;26.87;38.16
14293;BME280;62290;59.420;17.842;2023-07-16T03:42:53;100571.44;;;27.02;38.66
14293;BME280;62290;59.420;17.842;2023-07-16T03:45:24;100575.00;;;27.03;38.50
14293;BME280;62290;59.420;17.842;2023-07-16T03:47:52;100565.19;;;27.02;38.76
14293;BME280;62290;59.420;17.842;2023-07-16T03:50:20;100563.66;;;26.99;38.98
14293;BME280;62290;59.420;17.842;2023-07-16T03:52:48;100555.53;;;26.99;39.00
14293;BME280;62290;59.420;17.842;2023-07-16T03:55:16;100522.53;;;26.87;39.26
14293;BME280;62290;59.420;17.842;2023-07-16T03:57:44;100534.06;;;26.98;39.10
14293;BME280;62290;59.420;17.842;2023-07-16T04:00:13;100528.13;;;26.94;39.31
14293;BME280;62290;59.420;17.842;2023-07-16T04:02:42;100517.97;;;26.96;39.84
14293;BME280;62290;59.420;17.842;2023-07-16T04:05:16;100507.34;;;26.94;39.51
14293;BME280;62290;59.420;17.842;2023-07-16T04:07:46;100496.84;;;26.91;39.87
14293;BME280;62290;59.420;17.842;2023-07-16T04:10:14;100490.44;;;26.92;40.17
14293;BME280;62290;59.420;17.842;2023-07-16T04:12:42;100487.88;;;26.91;40.11
14293;BME280;62290;59.420;17.842;2023-07-16T04:15:11;100474.34;;;26.91;40.12
14293;BME280;62290;59.420;17.842;2023-07-16T04:17:39;100469.28;;;26.88;40.22
14293;BME280;62290;59.420;17.842;2023-07-16T04:20:09;100459.31;;;26.88;40.33
14293;BME280;62290;59.420;17.842;2023-07-16T04:22:37;100439.56;;;26.88;40.73
14293;BME280;62290;59.420;17.842;2023-07-16T04:25:06;100436.13;;;26.86;40.53
14293;BME280;62290;59.420;17.842;2023-07-16T04:27:34;100435.47;;;26.84;40.65
14293;BME280;62290;59.420;17.842;2023-07-16T04:30:03;100428.19;;;26.84;41.04
14293;BME280;62290;59.420;17.842;2023-07-16T04:32:32;100413.81;;;26.84;40.95
14293;BME280;62290;59.420;17.842;2023-07-16T04:35:00;100426.66;;;26.82;40.95
14293;BME280;62290;59.420;17.842;2023-07-16T04:37:29;100416.69;;;26.82;41.19
14293;BME280;62290;59.420;17.842;2023-07-16T04:39:57;100409.75;;;26.80;41.27
14293;BME280;62290;59.420;17.842;2023-07-16T04:42:25;100413.47;;;26.79;41.36
14293;BME280;62290;59.420;17.842;2023-07-16T04:44:54;100397.25;;;26.79;41.35
14293;BME280;62290;59.420;17.842;2023-07-16T04:47:22;100399.09;;;26.78;41.25
14293;BME280;62290;59.420;17.842;2023-07-16T04:49:50;100393.47;;;26.72;41.54
14293;BME280;62290;59.420;17.842;2023-07-16T04:52:18;100380.59;;;26.66;41.37
14293;BME280;62290;59.420;17.842;2023-07-16T04:54:47;100371.22;;;26.78;41.60
14293;BME280;62290;59.420;17.842;2023-07-16T04:57:15;100364.25;;;26.75;41.85
14293;BME280;62290;59.420;17.842;2023-07-16T04:59:44;100361.53;;;26.75;41.94
14293;BME280;62290;59.420;17.842;2023-07-16T05:02:12;100346.16;;;26.76;42.08
14293;BME280;62290;59.420;17.842;2023-07-16T05:04:40;100351.56;;;26.76;41.87
14293;BME280;62290;59.420;17.842;2023-07-16T05:07:10;100354.44;;;26.74;41.93
14293;BME280;62290;59.420;17.842;2023-07-16T05:09:38;100350.72;;;26.75;41.73
14293;BME280;62290;59.420;17.842;2023-07-16T05:12:08;100326.38;;;26.75;42.19
14293;BME280;62290;59.420;17.842;2023-07-16T05:14:43;100318.28;;;26.75;42.41
14293;BME280;62290;59.420;17.842;2023-07-16T05:17:12;100312.06;;;26.75;42.29
14293;BME280;62290;59.420;17.842;2023-07-16T05:19:41;100296.84;;;26.74;42.42
14293;BME280;62290;59.420;17.842;2023-07-16T05:22:09;100299.53;;;26.74;42.33
14293;BME280;62290;59.420;17.842;2023-07-16T05:24:37;100287.72;;;26.75;41.98
14293;BME280;62290;59.420;17.842;2023-07-16T05:27:05;100296.66;;;26.75;42.59
14293;BME280;62290;59.420;17.842;2023-07-16T05:29:35;100278.75;;;26.74;42.23
14293;BME280;62290;59.420;17.842;2023-07-16T05:32:03;100275.75;;;26.77;42.61
14293;BME280;62290;59.420;17.842;2023-07-16T05:34:32;100273.88;;;26.78;42.16
14293;BME280;62290;59.420;17.842;2023-07-16T05:37:00;100251.72;;;26.66;42.46
14293;BME280;62290;59.420;17.842;2023-07-16T05:39:28;100276.13;;;26.82;42.61
14293;BME280;62290;59.420;17.842;2023-07-16T05:41:56;100277.63;;;26.85;42.27
14293;BME280;62290;59.420;17.842;2023-07-16T05:44:24;100279.16;;;26.87;42.33
14293;BME280;62290;59.420;17.842;2023-07-16T05:46:54;100276.81;;;26.92;42.03
14293;BME280;62290;59.420;17.842;2023-07-16T05:49:23;100277.31;;;26.96;42.38
14293;BME280;62290;59.420;17.842;2023-07-16T05:51:52;100263.44;;;26.99;42.37
14293;BME280;62290;59.420;17.842;2023-07-16T05:54:21;100261.28;;;27.03;42.21
14293;BME280;62290;59.420;17.842;2023-07-16T05:56:49;100258.91;;;27.08;42.40
14293;BME280;62290;59.420;17.842;2023-07-16T05:59:17;100254.69;;;27.13;42.02
14293;BME280;62290;59.420;17.842;2023-07-16T06:01:45;100243.53;;;27.16;41.84
14293;BME280;62290;59.420;17.842;2023-07-16T06:04:15;100246.41;;;27.23;42.24
14293;BME280;62290;59.420;17.842;2023-07-16T06:06:43;100253.34;;;27.25;42.23
14293;BME280;62290;59.420;17.842;2023-07-16T06:09:11;100243.56;;;27.24;42.00
14293;BME280;62290;59.420;17.842;2023-07-16T06:11:39;100242.38;;;27.27;42.13
14293;BME280;62290;59.420;17.842;2023-07-16T06:14:07;100241.50;;;27.26;41.98
14293;BME280;62290;59.420;17.842;2023-07-16T06:16:35;100236.44;;;27.23;41.86
14293;BME280;62290;59.420;17.842;2023-07-16T06:19:03;100231.88;;;27.24;41.80
14293;BME280;62290;59.420;17.842;2023-07-16T06:21:33;100213.09;;;27.22;42.17
14293;BME280;62290;59.420;17.842;2023-07-16T06:24:01;100222.25;;;27.21;41.93
14293;BME280;62290;59.420;17.842;2023-07-16T06:26:29;100217.84;;;27.20;41.83
14293;BME280;62290;59.420;17.842;2023-07-16T06:28:57;100220.53;;;27.20;41.97
14293;BME280;62290;59.420;17.842;2023-07-16T06:31:25;100198.22;;;27.18;41.77
14293;BME280;62290;59.420;17.842;2023-07-16T06:33:53;100199.22;;;27.17;41.86
14293;BME280;62290;59.420;17.842;2023-07-16T06:36:21;100208.38;;;27.16;42.00
14293;BME280;62290;59.420;17.842;2023-07-16T06:38:50;100206.69;;;27.15;42.15
14293;BME280;62290;59.420;17.842;2023-07-16T06:41:18;100210.38;;;27.14;42.06
14293;BME280;62290;59.420;17.842;2023-07-16T06:43:46;100216.81;;;27.13;41.82
14293;BME280;62290;59.420;17.842;2023-07-16T06:46:14;100216.97;;;27.12;41.80
14293;BME280;62290;59.420;17.842;2023-07-16T06:48:43;100225.28;;;27.10;42.24
14293;BME280;62290;59.420;17.842;2023-07-16T06:51:11;100225.47;;;27.09;42.11
14293;BME280;62290;59.420;17.842;2023-07-16T06:53:39;100221.91;;;27.08;42.17
14293;BME280;62290;59.420;17.842;2023-07-16T06:56:08;100208.53;;;27.07;42.03
14293;BME280;62290;59.420;17.842;2023-07-16T06:58:36;100207.72;;;27.06;41.79
14293;BME280;62290;59.420;17.842;2023-07-16T07:01:04;100208.72;;;27.05;41.85
14293;BME280;62290;59.420;17.842;2023-07-16T07:03:33;100208.03;;;27.03;42.19
14293;BME280;62290;59.420;17.842;2023-07-16T07:06:02;100210.56;;;27.05;41.86
14293;BME280;62290;59.420;17.842;2023-07-16T07:08:30;100190.09;;;26.86;42.09
14293;BME280;62290;59.420;17.842;2023-07-16T07:10:58;100216.16;;;27.03;41.90
14293;BME280;62290;59.420;17.842;2023-07-16T07:13:28;100221.56;;;27.03;42.15
14293;BME280;62290;59.420;17.842;2023-07-16T07:15:56;100188.44;;;26.93;42.26
14293;BME280;62290;59.420;17.842;2023-07-16T07:18:24;100147.97;;;26.67;42.27
14293;BME280;62290;59.420;17.842;2023-07-16T07:20:53;100221.56;;;27.03;42.24
14293;BME280;62290;59.420;17.842;2023-07-16T07:23:21;100223.41;;;27.03;42.29
14293;BME280;62290;59.420;17.842;2023-07-16T07:25:49;100228.97;;;27.01;41.97
14293;BME280;62290;59.420;17.842;2023-07-16T07:28:19;100235.41;;;27.00;42.57
14293;BME280;62290;59.420;17.842;2023-07-16T07:30:48;100236.41;;;26.99;42.15
14293;BME280;62290;59.420;17.842;2023-07-16T07:33:16;100245.56;;;26.98;42.56
14293;BME280;62290;59.420;17.842;2023-07-16T07:35:44;100258.22;;;26.98;42.24
14293;BME280;62290;59.420;17.842;2023-07-16T07:38:12;100258.56;;;26.94;42.11
14293;BME280;62290;59.420;17.842;2023-07-16T07:40:42;100277.31;;;26.96;42.15
14293;BME280;62290;59.420;17.842;2023-07-16T07:43:10;100280.19;;;26.94;42.27
14293;BME280;62290;59.420;17.842;2023-07-16T07:45:38;100274.78;;;26.94;41.99
14293;BME280;62290;59.420;17.842;2023-07-16T07:48:08;100264.13;;;26.93;42.10
14293;BME280;62290;59.420;17.842;2023-07-16T07:50:36;100268.69;;;26.92;42.58
14293;BME280;62290;59.420;17.842;2023-07-16T07:53:05;100244.50;;;26.91;42.32
14293;BME280;62290;59.420;17.842;2023-07-16T07:55:33;100249.91;;;26.91;42.48
14293;BME280;62290;59.420;17.842;2023-07-16T07:58:02;100248.06;;;26.91;42.32
14293;BME280;62290;59.420;17.842;2023-07-16T08:00:30;100231.00;;;26.91;42.20
14293;BME280;62290;59.420;17.842;2023-07-16T08:02:58;100194.00;;;26.91;42.37
14293;BME280;62290;59.420;17.842;2023-07-16T08:05:28;100184.88;;;26.92;42.75
14293;BME280;62290;59.420;17.842;2023-07-16T08:07:56;100198.41;;;26.92;42.55
14293;BME280;62290;59.420;17.842;2023-07-16T08:10:24;100195.00;;;26.82;42.31
14293;BME280;62290;59.420;17.842;2023-07-16T08:12:52;100215.63;;;26.91;42.68
14293;BME280;62290;59.420;17.842;2023-07-16T08:15:20;100226.28;;;26.93;42.45
14293;BME280;62290;59.420;17.842;2023-07-16T08:17:48;100237.09;;;26.93;42.69
14293;BME280;62290;59.420;17.842;2023-07-16T08:20:16;100251.44;;;26.93;42.61
14293;BME280;62290;59.420;17.842;2023-07-16T08:22:46;100256.84;;;26.93;42.50
14293;BME280;62290;59.420;17.842;2023-07-16T08:25:14;100274.97;;;26.93;42.62
14293;BME280;62290;59.420;17.842;2023-07-16T08:27:42;100266.84;;;26.93;42.66
14293;BME280;62290;59.420;17.842;2023-07-16T08:30:10;100265.13;;;26.92;42.78
14293;BME280;62290;59.420;17.842;2023-07-16T08:32:38;100256.84;;;26.93;42.66
14293;BME280;62290;59.420;17.842;2023-07-16T08:35:07;100251.44;;;26.93;42.68
14293;BME280;62290;59.420;17.842;2023-07-16T08:37:38;100253.16;;;26.94;42.69
14293;BME280;62290;59.420;17.842;2023-07-16T08:40:09;100252.28;;;26.94;42.69
14293;BME280;62290;59.420;17.842;2023-07-16T08:42:38;100239.63;;;26.94;43.03
14293;BME280;62290;59.420;17.842;2023-07-16T08:45:10;100236.91;;;26.94;42.58
14293;BME280;62290;59.420;17.842;2023-07-16T08:47:38;100268.50;;;26.94;42.79
14293;BME280;62290;59.420;17.842;2023-07-16T08:50:07;100275.63;;;26.95;42.84
14293;BME280;62290;59.420;17.842;2023-07-16T08:52:35;100277.66;;;26.93;43.20
14293;BME280;62290;59.420;17.842;2023-07-16T08:55:04;100268.50;;;26.94;43.10
14293;BME280;62290;59.420;17.842;2023-07-16T08:57:35;100257.69;;;26.94;43.48
14293;BME280;62290;59.420;17.842;2023-07-16T09:00:07;100250.78;;;26.91;43.70
14293;BME280;62290;59.420;17.842;2023-07-16T09:02:36;100252.63;;;26.91;43.87
14293;BME280;62290;59.420;17.842;2023-07-16T09:05:04;100261.59;;;26.91;43.81
14293;BME280;62290;59.420;17.842;2023-07-16T09:07:33;100272.41;;;26.91;44.41
14293;BME280;62290;59.420;17.842;2023-07-16T09:10:01;100263.44;;;26.91;44.11
14293;BME280;62290;59.420;17.842;2023-07-16T09:12:29;100277.13;;;26.89;44.37
14293;BME280;62290;59.420;17.842;2023-07-16T09:14:59;100263.63;;;26.89;44.94
14293;BME280;62290;59.420;17.842;2023-07-16T09:17:27;100272.56;;;26.90;44.78
14293;BME280;62290;59.420;17.842;2023-07-16T09:19:55;100286.25;;;26.88;44.87
14293;BME280;62290;59.420;17.842;2023-07-16T09:22:23;100284.72;;;26.86;45.25
14293;BME280;62290;59.420;17.842;2023-07-16T09:24:51;100287.28;;;26.87;45.03
14293;BME280;62290;59.420;17.842;2023-07-16T09:27:19;100281.16;;;26.85;45.13
14293;BME280;62290;59.420;17.842;2023-07-16T09:29:48;100300.94;;;26.86;45.69
14293;BME280;62290;59.420;17.842;2023-07-16T09:32:19;100258.72;;;26.85;45.58
14293;BME280;62290;59.420;17.842;2023-07-16T09:34:49;100284.91;;;26.84;45.81
14293;BME280;62290;59.420;17.842;2023-07-16T09:37:18;100306.69;;;26.83;46.35
14293;BME280;62290;59.420;17.842;2023-07-16T09:39:46;100260.81;;;26.65;46.44
14293;BME280;62290;59.420;17.842;2023-07-16T09:42:15;100301.28;;;26.83;46.54
14293;BME280;62290;59.420;17.842;2023-07-16T09:44:47;100280.81;;;26.80;46.73
14293;BME280;62290;59.420;17.842;2023-07-16T09:47:16;100274.41;;;26.81;46.80
14293;BME280;62290;59.420;17.842;2023-07-16T09:49:45;100284.56;;;26.79;46.67
14293;BME280;62290;59.420;17.842;2023-07-16T09:52:14;100332.19;;;26.80;47.16
14293;BME280;62290;59.420;17.842;2023-07-16T09:54:42;100390.13;;;26.78;47.03
14293;BME280;62290;59.420;17.842;2023-07-16T09:57:14;100424.97;;;26.81;47.12
14293;BME280;62290;59.420;17.842;2023-07-16T09:59:43;100405.13;;;26.72;47.01
14293;BME280;62290;59.420;17.842;2023-07-16T10:02:13;100390.66;;;26.81;47.49
14293;BME280;62290;59.420;17.842;2023-07-16T10:04:41;100387.78;;;26.83;47.34
14293;BME280;62290;59.420;17.842;2023-07-16T10:07:20;100375.97;;;26.84;47.48
14293;BME280;62290;59.420;17.842;2023-07-16T10:09:52;100355.78;;;26.70;47.42
14293;BME280;62290;59.420;17.842;2023-07-16T10:12:21;100395.56;;;26.86;47.41
14293;BME280;62290;59.420;17.842;2023-07-16T10:14:51;100394.41;;;26.88;47.16
14293;BME280;62290;59.420;17.842;2023-07-16T10:17:20;100351.47;;;26.77;46.82
14293;BME280;62290;59.420;17.842;2023-07-16T10:19:55;100376.84;;;26.92;47.17
14293;BME280;62290;59.420;17.842;2023-07-16T10:22:38;100352.31;;;26.86;47.46
14293;BME280;62290;59.420;17.842;2023-07-16T10:25:09;100345.75;;;26.96;47.33
14293;BME280;62290;59.420;17.842;2023-07-16T10:27:38;100339.34;;;26.98;47.28
14293;BME280;62290;59.420;17.842;2023-07-16T10:30:06;100325.66;;;26.99;47.43
14293;BME280;62290;59.420;17.842;2023-07-16T10:32:34;100324.66;;;27.00;47.34
14293;BME280;62290;59.420;17.842;2023-07-16T10:35:04;100311.81;;;27.02;47.66
14293;BME280;62290;59.420;17.842;2023-07-16T10:37:32;100307.25;;;27.03;47.50
14293;BME280;62290;59.420;17.842;2023-07-16T10:40:03;100318.75;;;27.05;47.98
14293;BME280;62290;59.420;17.842;2023-07-16T10:42:32;100323.28;;;27.04;48.00
14293;BME280;62290;59.420;17.842;2023-07-16T10:45:01;100313.50;;;27.03;47.81
14293;BME280;62290;59.420;17.842;2023-07-16T10:47:31;100300.00;;;27.03;48.40
14293;BME280;62290;59.420;17.842;2023-07-16T10:50:00;100284.09;;;27.00;48.13
14293;BME280;62290;59.420;17.842;2023-07-16T10:52:28;100282.22;;;27.01;48.31
14293;BME280;62290;59.420;17.842;2023-07-16T10:54:56;100304.88;;;27.00;47.98
14293;BME280;62290;59.420;17.842;2023-07-16T10:57:26;100296.56;;;27.01;48.35
14293;BME280;62290;59.420;17.842;2023-07-16T10:59:56;100330.75;;;27.02;48.40
14293;BME280;62290;59.420;17.842;2023-07-16T11:02:26;100327.16;;;26.93;48.32
14293;BME280;62290;59.420;17.842;2023-07-16T11:04:54;100335.16;;;27.03;48.26
14293;BME280;62290;59.420;17.842;2023-07-16T11:07:24;100340.38;;;27.05;48.16
14293;BME280;62290;59.420;17.842;2023-07-16T11:09:54;100312.47;;;26.88;48.45
14293;BME280;62290;59.420;17.842;2023-07-16T11:12:23;100344.59;;;27.07;48.38
14293;BME280;62290;59.420;17.842;2023-07-16T11:14:54;100332.78;;;27.08;48.33
14293;BME280;62290;59.420;17.842;2023-07-16T11:17:24;100345.47;;;27.08;48.44
14293;BME280;62290;59.420;17.842;2023-07-16T11:19:53;100329.22;;;27.08;48.51
14293;BME280;62290;59.420;17.842;2023-07-16T11:22:25;100344.28;;;27.10;48.56
14293;BME280;62290;59.420;17.842;2023-07-16T11:24:54;100348.00;;;27.09;48.53
14293;BME280;62290;59.420;17.842;2023-07-16T11:27:25;100344.28;;;27.10;48.71
14293;BME280;62290;59.420;17.842;2023-07-16T11:29:56;100334.31;;;27.11;48.39
14293;BME280;62290;59.420;17.842;2023-07-16T11:32:30;100380.97;;;27.13;48.96
14293;BME280;62290;59.420;17.842;2023-07-16T11:35:00;100399.91;;;27.13;49.01
14293;BME280;62290;59.420;17.842;2023-07-16T11:37:30;100394.19;;;27.16;49.96
14293;BME280;62290;59.420;17.842;2023-07-16T11:40:00;100404.81;;;27.17;49.76
14293;BME280;62290;59.420;17.842;2023-07-16T11:42:30;100397.22;;;27.21;50.34
14293;BME280;62290;59.420;17.842;2023-07-16T11:45:00;100406.69;;;27.25;51.75
14293;BME280;62290;59.420;17.842;2023-07-16T11:47:29;100405.50;;;27.27;50.97
14293;BME280;62290;59.420;17.842;2023-07-16T11:49:57;100403.34;;;27.31;51.13
14293;BME280;62290;59.420;17.842;2023-07-16T11:52:27;100396.59;;;27.35;52.10
14293;BME280;62290;59.420;17.842;2023-07-16T11:54:57;100397.09;;;27.38;52.58
14293;BME280;62290;59.420;17.842;2023-07-16T11:57:27;100397.81;;;27.40;53.06
14293;BME280;62290;59.420;17.842;2023-07-16T11:59:55;100393.91;;;27.43;52.75
14293;BME280;62290;59.420;17.842;2023-07-16T12:02:25;100397.31;;;27.45;52.22
14293;BME280;62290;59.420;17.842;2023-07-16T12:04:54;100400.03;;;27.45;52.33
14293;BME280;62290;59.420;17.842;2023-07-16T12:07:31;100403.41;;;27.47;51.54
14293;BME280;62290;59.420;17.842;2023-07-16T12:10:02;100398.84;;;27.47;51.92
14293;BME280;62290;59.420;17.842;2023-07-16T12:12:30;100401.22;;;27.50;51.45
14293;BME280;62290;59.420;17.842;2023-07-16T12:14:59;100397.50;;;27.51;51.91
14293;BME280;62290;59.420;17.842;2023-07-16T12:17:29;100411.69;;;27.53;51.63
14293;BME280;62290;59.420;17.842;2023-07-16T12:19:57;100415.94;;;27.56;50.73
14293;BME280;62290;59.420;17.842;2023-07-16T12:22:25;100410.50;;;27.56;50.82
14293;BME280;62290;59.420;17.842;2023-07-16T12:24:53;100414.06;;;27.56;50.39
14293;BME280;62290;59.420;17.842;2023-07-16T12:27:21;100420.16;;;27.58;50.24
14293;BME280;62290;59.420;17.842;2023-07-16T12:29:49;100414.94;;;27.57;49.96
14293;BME280;62290;59.420;17.842;2023-07-16T12:32:19;100421.88;;;27.60;49.54
14293;BME280;62290;59.420;17.842;2023-07-16T12:34:49;100421.88;;;27.60;49.91
14293;BME280;62290;59.420;17.842;2023-07-16T12:37:17;100423.56;;;27.61;50.24
14293;BME280;62290;59.420;17.842;2023-07-16T12:39:45;100431.38;;;27.64;49.69
14293;BME280;62290;59.420;17.842;2023-07-16T12:42:13;100425.25;;;27.62;49.36
14293;BME280;62290;59.420;17.842;2023-07-16T12:44:41;100424.78;;;27.66;49.41
14293;BME280;62290;59.420;17.842;2023-07-16T12:47:09;100418.66;;;27.64;49.34
14293;BME280;62290;59.420;17.842;2023-07-16T12:49:37;100419.00;;;27.69;49.25